Time;durP1;ratioP1;P1;durP2;ratioP2;P2;SDS_P1;SDS_P2;PMS_P1;PMS_P2;Temp;Humidity;BMP_temperature;BMP_pressure;BME280_temperature;BME280_humidity;BME280_pressure;Samples;Min_cycle;Max_cycle;Signal;HPM_P1;HPM_P2
2022/03/02 00:00:12;;;;;;;100.93;59.70;;;5.40;99.90;;;;;;5047152;28;20053;-75
2022/03/02 00:02:38;;;;;;;102.73;59.37;;;5.40;99.90;;;;;;5046154;28;20490;-76
2022/03/02 00:05:05;;;;;;;103.95;61.28;;;5.40;99.90;;;;;;5081593;28;20124;-75
2022/03/02 00:07:31;;;;;;;102.97;57.38;;;5.40;99.90;;;;;;5055014;28;20110;-75
2022/03/02 00:09:56;;;;;;;104.00;59.35;;;5.30;99.90;;;;;;5048413;28;20862;-75
2022/03/02 00:12:22;;;;;;;107.80;62.13;;;5.30;99.90;;;;;;5047698;28;20130;-75
2022/03/02 00:14:48;;;;;;;104.35;61.70;;;5.30;99.90;;;;;;5048153;28;20636;-75
2022/03/02 00:17:14;;;;;;;97.85;59.25;;;5.30;99.90;;;;;;5048016;28;20052;-75
2022/03/02 00:19:40;;;;;;;99.13;56.58;;;5.30;99.90;;;;;;5047407;28;20452;-75
2022/03/02 00:22:06;;;;;;;98.82;60.03;;;5.20;99.90;;;;;;5047451;28;20059;-75
2022/03/02 00:24:32;;;;;;;105.22;61.28;;;5.20;99.90;;;;;;5047602;28;20131;-76
2022/03/02 00:26:58;;;;;;;112.90;62.08;;;5.20;99.90;;;;;;5082479;28;20094;-75
2022/03/02 00:29:25;;;;;;;107.10;60.80;;;5.20;99.90;;;;;;5049132;28;20488;-76
2022/03/02 00:31:51;;;;;;;103.88;61.85;;;5.20;99.90;;;;;;5049273;28;20702;-76
2022/03/02 00:34:17;;;;;;;105.05;65.25;;;5.20;99.90;;;;;;5080417;28;20080;-76
2022/03/02 00:36:42;;;;;;;102.43;61.15;;;5.20;99.90;;;;;;5046447;28;20041;-75
2022/03/02 00:39:08;;;;;;;100.43;58.80;;;5.10;99.90;;;;;;5079274;28;20047;-76
2022/03/02 00:41:34;;;;;;;102.03;62.20;;;5.10;99.90;;;;;;5079132;28;20043;-76
2022/03/02 00:44:01;;;;;;;108.05;60.95;;;5.10;99.90;;;;;;5078621;28;20053;-76
2022/03/02 00:46:29;;;;;;;100.75;59.60;;;5.10;99.90;;;;;;5055122;28;20043;-76
2022/03/02 00:49:00;;;;;;;100.28;61.05;;;5.10;99.90;;;;;;5081159;28;20426;-76
2022/03/02 00:51:26;;;;;;;107.75;61.08;;;5.00;99.90;;;;;;5046031;28;20040;-76
2022/03/02 00:53:53;;;;;;;112.85;62.95;;;5.00;99.90;;;;;;5073370;28;20053;-76
2022/03/02 00:56:21;;;;;;;107.28;63.00;;;5.00;99.90;;;;;;5079218;28;20521;-76
2022/03/02 00:58:46;;;;;;;115.97;65.13;;;5.00;99.90;;;;;;5047959;28;20689;-76
2022/03/02 01:01:12;;;;;;;108.28;64.25;;;5.00;99.90;;;;;;5079728;28;20043;-76
2022/03/02 01:03:38;;;;;;;115.07;63.90;;;5.00;99.90;;;;;;5081747;28;21095;-76
2022/03/02 01:06:05;;;;;;;111.95;65.97;;;5.00;99.90;;;;;;5080503;28;20171;-76
2022/03/02 01:08:34;;;;;;;109.18;65.65;;;5.00;99.90;;;;;;5049105;28;20154;-76
2022/03/02 01:11:02;;;;;;;109.38;61.58;;;5.00;99.90;;;;;;5052618;28;20052;-75
2022/03/02 01:13:28;;;;;;;105.65;62.17;;;5.00;99.90;;;;;;5049495;28;20041;-76
2022/03/02 01:15:54;;;;;;;107.03;62.45;;;5.00;99.90;;;;;;5047647;28;20040;-77
2022/03/02 01:18:20;;;;;;;102.85;62.65;;;5.00;99.90;;;;;;5047254;28;20126;-76
2022/03/02 01:20:45;;;;;;;110.28;63.63;;;5.00;99.90;;;;;;5045561;28;20063;-77
2022/03/02 01:23:11;;;;;;;109.35;63.47;;;4.90;99.90;;;;;;5046789;28;20051;-76
2022/03/02 01:25:38;;;;;;;110.68;64.60;;;4.90;99.90;;;;;;5048517;28;20453;-76
2022/03/02 01:28:03;;;;;;;109.38;65.53;;;4.90;99.90;;;;;;5048460;28;20056;-76
2022/03/02 01:30:30;;;;;;;111.05;63.25;;;4.90;99.90;;;;;;5080442;28;20045;-76
2022/03/02 01:32:55;;;;;;;115.78;65.47;;;4.90;99.90;;;;;;5081167;28;20051;-77
2022/03/02 01:35:22;;;;;;;101.22;60.75;;;4.90;99.90;;;;;;5046160;28;20040;-76
2022/03/02 01:37:47;;;;;;;104.65;58.88;;;5.00;99.90;;;;;;5046353;28;20108;-77
2022/03/02 01:40:14;;;;;;;109.10;63.78;;;5.00;99.90;;;;;;5079752;28;20470;-77
2022/03/02 01:42:44;;;;;;;92.43;60.83;;;5.00;99.90;;;;;;5047645;28;20556;-77
2022/03/02 01:45:11;;;;;;;91.70;57.42;;;5.00;99.90;;;;;;5048535;28;20050;-76
2022/03/02 01:47:38;;;;;;;107.80;60.78;;;5.10;99.90;;;;;;5046006;28;20041;-76
2022/03/02 01:50:10;;;;;;;101.95;59.30;;;5.00;99.90;;;;;;5084945;28;20056;-77
2022/03/02 01:52:36;;;;;;;96.85;59.85;;;5.10;99.90;;;;;;5063122;28;20124;-76
2022/03/02 01:55:04;;;;;;;110.25;61.90;;;5.00;99.90;;;;;;5084133;28;20040;-76
2022/03/02 01:57:30;;;;;;;110.00;65.20;;;5.00;99.90;;;;;;5050754;28;20052;-77
2022/03/02 01:59:55;;;;;;;105.15;60.28;;;5.00;99.90;;;;;;5047474;28;20061;-77
2022/03/02 02:02:21;;;;;;;112.15;62.85;;;5.00;99.90;;;;;;5085811;28;20485;-77
2022/03/02 02:04:47;;;;;;;111.75;66.35;;;4.90;99.90;;;;;;5088330;28;20053;-77
2022/03/02 02:07:12;;;;;;;103.25;65.07;;;4.90;99.90;;;;;;5057047;28;20086;-76
2022/03/02 02:09:38;;;;;;;110.57;61.67;;;4.80;99.90;;;;;;5052687;28;20508;-76
2022/03/02 02:12:04;;;;;;;119.43;64.28;;;4.80;99.90;;;;;;5073670;28;20120;-76
2022/03/02 02:14:30;;;;;;;107.35;63.58;;;4.80;99.90;;;;;;5050653;28;20068;-76
2022/03/02 02:16:55;;;;;;;105.53;62.88;;;4.70;99.90;;;;;;5046361;28;20502;-77
2022/03/02 02:19:21;;;;;;;112.50;65.93;;;4.70;99.90;;;;;;5057091;28;20187;-76
2022/03/02 02:21:48;;;;;;;109.22;61.25;;;4.80;99.90;;;;;;5050593;28;20087;-77
2022/03/02 02:24:15;;;;;;;110.43;64.63;;;4.70;99.90;;;;;;5049007;28;20088;-76
2022/03/02 02:26:41;;;;;;;111.95;64.00;;;4.70;99.90;;;;;;5048734;28;20163;-76
2022/03/02 02:29:07;;;;;;;113.35;65.03;;;4.70;99.90;;;;;;5050420;28;20048;-76
2022/03/02 02:31:33;;;;;;;111.50;64.78;;;4.60;99.90;;;;;;5049708;28;20041;-76
2022/03/02 02:33:59;;;;;;;100.30;64.13;;;4.60;99.90;;;;;;5081872;28;20052;-76
2022/03/02 02:36:25;;;;;;;116.70;67.55;;;4.60;99.90;;;;;;5048503;28;20041;-75
2022/03/02 02:38:51;;;;;;;117.00;68.22;;;4.70;99.90;;;;;;5082333;28;20554;-76
2022/03/02 02:41:18;;;;;;;114.82;66.45;;;4.60;99.90;;;;;;5047366;28;20128;-77
2022/03/02 02:43:44;;;;;;;113.28;68.75;;;4.60;99.90;;;;;;5050248;28;20053;-76
2022/03/02 02:46:11;;;;;;;123.88;69.65;;;4.60;99.90;;;;;;5082523;28;20052;-76
2022/03/02 02:48:38;;;;;;;117.60;69.93;;;4.60;99.90;;;;;;5047994;28;20051;-77
2022/03/02 02:51:04;;;;;;;121.47;69.63;;;4.60;99.90;;;;;;5082031;28;20506;-74
2022/03/02 02:53:30;;;;;;;113.82;68.72;;;4.60;99.90;;;;;;5046390;28;20413;-74
2022/03/02 02:55:56;;;;;;;111.95;66.35;;;4.50;99.90;;;;;;5048976;28;20044;-74
2022/03/02 02:58:22;;;;;;;120.60;69.43;;;4.50;99.90;;;;;;5048688;28;20041;-74
2022/03/02 03:00:49;;;;;;;118.63;67.53;;;4.60;99.90;;;;;;5049520;28;20134;-74
2022/03/02 03:03:16;;;;;;;117.13;66.82;;;4.60;99.90;;;;;;5049492;28;20937;-74
2022/03/02 03:05:44;;;;;;;125.85;71.93;;;4.60;99.90;;;;;;5050550;28;20120;-74
2022/03/02 03:08:11;;;;;;;124.82;70.15;;;4.50;99.90;;;;;;5047229;28;20045;-74
2022/03/02 03:10:38;;;;;;;125.18;69.32;;;4.60;99.90;;;;;;5046999;28;20064;-74
2022/03/02 03:13:05;;;;;;;110.25;65.07;;;4.60;99.90;;;;;;5050547;28;20049;-74
2022/03/02 03:15:31;;;;;;;122.07;69.35;;;4.60;99.90;;;;;;5074538;28;20427;-74
2022/03/02 03:17:58;;;;;;;119.72;68.72;;;4.60;99.90;;;;;;5071830;28;20057;-74
2022/03/02 03:20:26;;;;;;;116.85;67.93;;;4.60;99.90;;;;;;5047905;28;20045;-74
2022/03/02 03:22:54;;;;;;;117.03;69.17;;;4.60;99.90;;;;;;5047789;28;20105;-74
2022/03/02 03:25:22;;;;;;;125.50;70.40;;;4.60;99.90;;;;;;5049643;28;20414;-73
2022/03/02 03:27:49;;;;;;;116.43;66.70;;;4.50;99.90;;;;;;5051470;28;20132;-73
2022/03/02 03:30:17;;;;;;;119.78;69.85;;;4.50;99.90;;;;;;5073483;28;20060;-73
2022/03/02 03:32:43;;;;;;;126.47;70.47;;;4.50;99.90;;;;;;5062534;28;20037;-73
2022/03/02 03:35:11;;;;;;;128.30;69.45;;;4.50;99.90;;;;;;5047394;28;20203;-73
2022/03/02 03:37:37;;;;;;;105.15;63.40;;;4.50;99.90;;;;;;5080152;28;20060;-75
2022/03/02 03:40:05;;;;;;;117.30;65.82;;;4.50;99.90;;;;;;5048608;28;20068;-74
2022/03/02 03:42:30;;;;;;;120.00;68.13;;;4.50;99.90;;;;;;5048378;28;20132;-74
2022/03/02 03:44:56;;;;;;;119.55;70.22;;;4.50;99.90;;;;;;5047355;28;20128;-74
2022/03/02 03:47:22;;;;;;;117.57;68.57;;;4.50;99.90;;;;;;5082039;28;20072;-74
2022/03/02 03:49:48;;;;;;;121.30;69.03;;;4.50;99.90;;;;;;5048041;28;20037;-74
2022/03/02 03:52:13;;;;;;;119.70;68.95;;;4.50;99.90;;;;;;5053109;28;20107;-74
2022/03/02 03:54:39;;;;;;;126.60;68.53;;;4.50;99.90;;;;;;5048435;28;20484;-74
2022/03/02 03:57:05;;;;;;;123.07;70.32;;;4.40;99.90;;;;;;5048493;28;20049;-74
2022/03/02 03:59:31;;;;;;;119.10;69.00;;;4.40;99.90;;;;;;5047850;28;20076;-74
2022/03/02 04:01:57;;;;;;;128.82;73.15;;;4.50;99.90;;;;;;5047302;28;20060;-77
2022/03/02 04:04:22;;;;;;;111.00;65.95;;;4.50;99.90;;;;;;5048940;28;20197;-77
2022/03/02 04:06:49;;;;;;;121.78;68.22;;;4.50;99.90;;;;;;5049086;28;20497;-77
2022/03/02 04:09:15;;;;;;;118.22;68.20;;;4.40;99.90;;;;;;5051432;28;20144;-77
2022/03/02 04:11:40;;;;;;;120.95;68.88;;;4.40;99.90;;;;;;5079779;28;20119;-77
2022/03/02 04:14:08;;;;;;;113.15;66.45;;;4.40;99.90;;;;;;5045966;28;20080;-77
2022/03/02 04:16:34;;;;;;;115.22;66.22;;;4.40;99.90;;;;;;5064312;28;20044;-77
2022/03/02 04:19:00;;;;;;;116.80;67.20;;;4.40;99.90;;;;;;5046653;28;20041;-77
2022/03/02 04:21:26;;;;;;;120.90;68.22;;;4.40;99.90;;;;;;5046684;28;20118;-77
2022/03/02 04:23:52;;;;;;;126.72;65.15;;;4.40;99.90;;;;;;5047260;28;20063;-77
2022/03/02 04:26:18;;;;;;;110.82;64.93;;;4.40;99.90;;;;;;5046424;28;20044;-77
2022/03/02 04:28:44;;;;;;;112.68;65.93;;;4.40;99.90;;;;;;5046806;28;20094;-77
2022/03/02 04:31:10;;;;;;;125.00;70.20;;;4.40;99.90;;;;;;5046222;28;20049;-77
2022/03/02 04:33:36;;;;;;;116.85;66.10;;;4.40;99.90;;;;;;5082337;28;20053;-77
2022/03/02 04:36:06;;;;;;;121.35;67.03;;;4.40;99.90;;;;;;5047719;28;20052;-76
2022/03/02 04:38:32;;;;;;;114.13;65.40;;;4.40;99.90;;;;;;5049240;28;20088;-77
2022/03/02 04:40:58;;;;;;;107.85;66.57;;;4.30;99.90;;;;;;5058237;28;20044;-77
2022/03/02 04:43:24;;;;;;;106.95;64.20;;;4.30;99.90;;;;;;5043847;28;20045;-77
2022/03/02 04:45:50;;;;;;;119.28;64.70;;;4.30;99.90;;;;;;5081671;28;20047;-77
2022/03/02 04:48:16;;;;;;;110.15;65.68;;;4.30;99.90;;;;;;5047531;28;20144;-77
2022/03/02 04:50:42;;;;;;;114.82;65.47;;;4.30;99.90;;;;;;5074481;28;20055;-75
2022/03/02 04:53:07;;;;;;;115.47;62.75;;;4.20;99.90;;;;;;5060042;28;20053;-74
2022/03/02 04:55:33;;;;;;;110.22;65.53;;;4.20;99.90;;;;;;5046498;28;20809;-74
2022/03/02 04:58:01;;;;;;;109.32;65.43;;;4.20;99.90;;;;;;5047043;28;20051;-74
2022/03/02 05:00:30;;;;;;;104.07;64.15;;;4.20;99.90;;;;;;5043205;28;20044;-74
2022/03/02 05:02:59;;;;;;;103.63;61.15;;;4.10;99.90;;;;;;5047172;28;20048;-74
2022/03/02 05:05:25;;;;;;;;;;;4.10;99.90;;;;;;5047895;28;20048;-73
2022/03/02 05:07:51;;;;;;;112.63;64.72;;;4.00;99.90;;;;;;5046412;28;19990;-76
2022/03/02 05:10:19;;;;;;;109.85;63.67;;;4.00;99.90;;;;;;5043994;28;20120;-73
2022/03/02 05:12:45;;;;;;;112.72;63.67;;;4.00;99.90;;;;;;5045093;28;20068;-74
2022/03/02 05:15:13;;;;;;;119.93;66.43;;;3.90;99.90;;;;;;5047072;28;20048;-74
2022/03/02 05:17:40;;;;;;;108.38;65.38;;;3.90;99.90;;;;;;5042407;28;20114;-74
2022/03/02 05:20:10;;;;;;;121.50;69.28;;;3.90;99.90;;;;;;5048737;28;20055;-73
2022/03/02 05:22:36;;;;;;;114.68;68.43;;;3.80;99.90;;;;;;5053217;28;20691;-75
2022/03/02 05:25:03;;;;;;;121.93;70.95;;;3.70;99.90;;;;;;5053058;28;20148;-73
2022/03/02 05:27:29;;;;;;;125.07;74.40;;;3.60;99.90;;;;;;5051778;28;20586;-73
2022/03/02 05:29:54;;;;;;;122.78;72.13;;;3.50;99.90;;;;;;5053981;28;20150;-74
2022/03/02 05:32:20;;;;;;;112.78;64.72;;;3.40;99.90;;;;;;5052111;28;20157;-74
2022/03/02 05:34:46;;;;;;;130.52;70.45;;;3.40;99.90;;;;;;5052942;28;20103;-73
2022/03/02 05:37:13;;;;;;;114.07;65.43;;;3.40;99.90;;;;;;5053821;28;20167;-73
2022/03/02 05:39:43;;;;;;;115.72;69.57;;;3.40;99.90;;;;;;5055886;28;20040;-75
2022/03/02 05:42:09;;;;;;;115.00;69.72;;;3.40;99.90;;;;;;5063165;28;20055;-74
2022/03/02 05:44:35;;;;;;;123.45;68.75;;;3.50;99.90;;;;;;5051940;28;20041;-74
2022/03/02 05:47:00;;;;;;;114.40;67.70;;;3.40;99.90;;;;;;5081456;28;20116;-75
2022/03/02 05:49:26;;;;;;;123.93;67.05;;;3.40;99.90;;;;;;5086862;28;20520;-74
2022/03/02 05:51:52;;;;;;;107.57;66.22;;;3.50;99.90;;;;;;5052862;28;20106;-74
2022/03/02 05:54:17;;;;;;;122.95;67.43;;;3.40;99.90;;;;;;5052341;28;20888;-74
2022/03/02 05:56:43;;;;;;;109.57;67.88;;;3.40;99.90;;;;;;5052099;28;20045;-73
2022/03/02 05:59:11;;;;;;;120.32;72.07;;;3.40;99.90;;;;;;5053455;28;20045;-74
2022/03/02 06:01:38;;;;;;;126.30;70.07;;;3.40;99.90;;;;;;5083624;28;20044;-73
2022/03/02 06:04:08;;;;;;;113.15;65.72;;;3.30;99.90;;;;;;5051926;28;20329;-73
2022/03/02 06:06:35;;;;;;;123.95;69.72;;;3.20;99.90;;;;;;5050366;28;20052;-74
2022/03/02 06:09:06;;;;;;;117.75;67.38;;;3.20;99.90;;;;;;5054433;28;20049;-73
2022/03/02 06:11:32;;;;;;;117.10;65.40;;;3.20;99.90;;;;;;5051440;28;20136;-73
2022/03/02 06:13:58;;;;;;;108.60;63.25;;;3.20;99.90;;;;;;5052574;28;20041;-74
2022/03/02 06:16:24;;;;;;;108.97;63.55;;;3.10;99.90;;;;;;5053853;28;20045;-74
2022/03/02 06:18:50;;;;;;;123.20;70.00;;;3.10;99.90;;;;;;5042852;28;20045;-73
2022/03/02 06:21:23;;;;;;;126.60;70.10;;;3.00;99.90;;;;;;5050282;28;20041;-74
2022/03/02 06:23:50;;;;;;;117.22;68.75;;;3.00;99.90;;;;;;5069377;28;20702;-74
2022/03/02 06:26:18;;;;;;;126.35;71.55;;;3.00;99.90;;;;;;5051637;28;20117;-74
2022/03/02 06:28:44;;;;;;;122.25;71.55;;;3.00;99.90;;;;;;5051357;28;20621;-73
2022/03/02 06:31:13;;;;;;;107.70;65.90;;;2.90;99.90;;;;;;5049562;28;20101;-74
2022/03/02 06:33:40;;;;;;;109.60;65.18;;;2.90;99.90;;;;;;5079661;28;20047;-74
2022/03/02 06:36:06;;;;;;;114.45;69.63;;;2.90;99.90;;;;;;5044150;28;20068;-72
2022/03/02 06:38:32;;;;;;;111.38;65.18;;;2.90;99.90;;;;;;5048041;28;20061;-74
2022/03/02 06:41:02;;;;;;;117.72;66.13;;;2.80;99.90;;;;;;5050997;28;20045;-73
2022/03/02 06:43:39;;;;;;;112.00;65.65;;;2.80;99.90;;;;;;5080374;28;20406;-74
2022/03/02 06:46:19;;;;;;;116.07;64.03;;;2.80;99.90;;;;;;5049948;28;20048;-75
2022/03/02 06:49:02;;;;;;;120.28;68.30;;;2.90;99.90;;;;;;5048662;28;20056;-73
2022/03/02 06:51:30;;;;;;;118.95;66.32;;;2.90;99.90;;;;;;5047761;28;20056;-72
2022/03/02 06:54:01;;;;;;;110.00;68.68;;;2.90;99.90;;;;;;5050187;28;20422;-72
2022/03/02 06:56:31;;;;;;;116.47;67.63;;;2.90;99.90;;;;;;5052123;28;20375;-73
2022/03/02 06:59:00;;;;;;;117.70;66.70;;;2.90;99.90;;;;;;5050651;28;20047;-72
2022/03/02 07:01:32;;;;;;;104.65;64.25;;;3.00;99.90;;;;;;5050017;28;20057;-73
2022/03/02 07:04:00;;;;;;;107.55;63.38;;;3.10;99.90;;;;;;5080529;28;20055;-72
2022/03/02 07:06:28;;;;;;;107.15;65.60;;;3.20;99.90;;;;;;5048386;28;20487;-74
2022/03/02 07:08:54;;;;;;;114.15;67.88;;;3.30;99.90;;;;;;5050655;28;20045;-74
2022/03/02 07:11:21;;;;;;;107.07;64.45;;;3.40;99.90;;;;;;5046046;28;20056;-74
2022/03/02 07:13:47;;;;;;;102.93;60.63;;;3.40;99.90;;;;;;5049254;28;20056;-74
2022/03/02 07:16:15;;;;;;;110.15;62.13;;;3.50;99.90;;;;;;5048627;28;20059;-74
2022/03/02 07:18:41;;;;;;;112.40;67.82;;;3.40;99.90;;;;;;5042511;28;20045;-73
2022/03/02 07:21:13;;;;;;;115.97;69.05;;;3.40;99.90;;;;;;5049567;28;20048;-73
2022/03/02 07:23:48;;;;;;;99.05;61.78;;;3.40;99.90;;;;;;5044144;28;20122;-74
2022/03/02 07:26:17;;;;;;;117.13;65.97;;;3.30;99.90;;;;;;5044968;28;20119;-74
2022/03/02 07:28:47;;;;;;;106.35;64.60;;;3.30;99.90;;;;;;5080941;28;20059;-74
2022/03/02 07:31:13;;;;;;;106.10;62.95;;;3.30;99.90;;;;;;5080050;28;20057;-74
2022/03/02 07:33:42;;;;;;;107.28;63.25;;;3.40;99.90;;;;;;5045585;28;20049;-76
2022/03/02 07:36:09;;;;;;;;;;;3.40;99.90;;;;;;5046860;28;20053;-75
2022/03/02 07:38:34;;;;;;;115.50;66.40;;;3.40;99.90;;;;;;5047270;28;19928;-74
2022/03/02 07:41:02;;;;;;;125.30;67.03;;;3.50;99.90;;;;;;5082428;28;20056;-76
2022/03/02 07:43:29;;;;;;;114.35;66.43;;;3.50;99.90;;;;;;5046830;28;20124;-75
2022/03/02 07:45:55;;;;;;;121.03;67.18;;;3.60;99.90;;;;;;5052767;28;20584;-75
2022/03/02 07:48:21;;;;;;;109.32;66.55;;;3.60;99.90;;;;;;5050539;28;20050;-75
2022/03/02 07:50:49;;;;;;;111.85;64.25;;;3.70;99.90;;;;;;5085274;28;20080;-75
2022/03/02 07:53:17;;;;;;;;;;;3.80;99.90;;;;;;5091318;28;20064;-75
2022/03/02 07:55:44;;;;;;;108.13;60.22;;;3.80;99.90;;;;;;5088140;28;19955;-74
2022/03/02 07:58:10;;;;;;;106.45;63.45;;;3.90;99.90;;;;;;5089500;28;20036;-75
2022/03/02 08:00:36;;;;;;;112.90;64.70;;;4.00;99.90;;;;;;5088893;28;20201;-75
2022/03/02 08:03:03;;;;;;;98.68;59.72;;;4.10;99.90;;;;;;5088989;28;20118;-75
2022/03/02 08:05:29;;;;;;;101.47;60.17;;;4.10;99.90;;;;;;5089365;28;20048;-75
2022/03/02 08:07:55;;;;;;;112.78;60.17;;;4.20;99.90;;;;;;5068883;28;20093;-76
2022/03/02 08:10:20;;;;;;;98.90;61.05;;;4.20;99.90;;;;;;5065670;28;20066;-76
2022/03/02 08:12:46;;;;;;;97.13;57.13;;;4.20;99.90;;;;;;5068187;28;20180;-75
2022/03/02 08:15:12;;;;;;;96.70;59.58;;;4.30;99.90;;;;;;5071931;28;20043;-75
2022/03/02 08:17:38;;;;;;;102.43;59.80;;;4.30;99.90;;;;;;5087972;28;20059;-75
2022/03/02 08:20:05;;;;;;;111.35;59.28;;;4.40;99.90;;;;;;5087211;28;20040;-74
2022/03/02 08:22:35;;;;;;;102.95;58.85;;;4.40;99.90;;;;;;5067541;28;20044;-76
2022/03/02 08:25:11;;;;;;;103.00;60.45;;;4.50;99.90;;;;;;5079779;28;20104;-77
2022/03/02 08:27:41;;;;;;;96.18;55.10;;;4.60;99.90;;;;;;5067194;28;20081;-75
2022/03/02 08:30:09;;;;;;;100.78;58.13;;;4.70;99.90;;;;;;5069874;28;20087;-76
2022/03/02 08:32:42;;;;;;;94.68;56.28;;;4.70;99.90;;;;;;5085367;28;20566;-77
2022/03/02 08:35:10;;;;;;;103.32;60.13;;;4.70;99.90;;;;;;5070446;28;20058;-75
2022/03/02 08:37:36;;;;;;;99.55;61.33;;;4.80;99.90;;;;;;5069049;28;20130;-74
2022/03/02 08:40:02;;;;;;;104.95;59.67;;;4.90;99.90;;;;;;5070105;28;20135;-76
2022/03/02 08:42:29;;;;;;;100.40;57.53;;;4.90;99.90;;;;;;5067604;28;20048;-75
2022/03/02 08:44:55;;;;;;;98.65;56.70;;;4.90;99.90;;;;;;5068394;28;20048;-74
2022/03/02 08:47:24;;;;;;;104.22;57.60;;;5.00;99.90;;;;;;5087028;28;20048;-74
2022/03/02 08:49:51;;;;;;;92.45;53.60;;;5.10;99.90;;;;;;5068980;28;20397;-74
2022/03/02 08:52:24;;;;;;;86.88;52.28;;;5.10;99.90;;;;;;5069953;28;20414;-75
2022/03/02 08:54:50;;;;;;;97.78;54.72;;;5.20;99.90;;;;;;5099849;27;22456;-76
2022/03/02 08:57:18;;;;;;;87.13;56.38;;;5.20;99.90;;;;;;5066293;28;20047;-78
2022/03/02 08:59:45;;;;;;;83.93;51.83;;;5.20;99.90;;;;;;5086836;28;20039;-77
2022/03/02 09:02:16;;;;;;;85.70;53.33;;;5.30;99.90;;;;;;5069035;28;20089;-79
2022/03/02 09:04:43;;;;;;;96.07;53.95;;;5.30;99.90;;;;;;5069527;28;20122;-71
2022/03/02 09:07:08;;;;;;;89.43;53.10;;;5.40;99.90;;;;;;5083057;28;20074;-71
2022/03/02 09:09:34;;;;;;;90.93;53.53;;;5.50;99.90;;;;;;5067792;28;20505;-70
2022/03/02 09:12:00;;;;;;;87.75;51.13;;;5.60;99.90;;;;;;5069397;28;20077;-71
2022/03/02 09:14:26;;;;;;;93.00;54.60;;;5.70;99.90;;;;;;5069593;28;20069;-71
2022/03/02 09:16:52;;;;;;;94.13;53.08;;;5.80;99.90;;;;;;5069060;28;20048;-70
2022/03/02 09:19:17;;;;;;;81.25;48.95;;;6.00;99.90;;;;;;5087693;28;20039;-71
2022/03/02 09:21:44;;;;;;;76.05;50.72;;;6.00;99.90;;;;;;5068937;28;20089;-71
2022/03/02 09:24:11;;;;;;;82.53;50.47;;;6.10;99.90;;;;;;5065072;28;20046;-71
2022/03/02 09:26:38;;;;;;;80.97;49.92;;;6.20;99.90;;;;;;5069717;28;20447;-71
2022/03/02 09:29:05;;;;;;;78.00;47.85;;;6.30;99.90;;;;;;5071835;28;20043;-70
2022/03/02 09:31:34;;;;;;;81.38;48.08;;;6.40;99.90;;;;;;5087095;28;20044;-70
2022/03/02 09:34:05;;;;;;;75.50;46.72;;;6.50;99.90;;;;;;5087340;28;20044;-71
2022/03/02 09:36:33;;;;;;;86.43;49.30;;;6.50;99.90;;;;;;5073777;28;20115;-70
2022/03/02 09:39:00;;;;;;;83.72;49.22;;;6.60;99.90;;;;;;5102617;28;20047;-71
2022/03/02 09:41:33;;;;;;;86.68;50.60;;;6.60;99.90;;;;;;5067507;28;20583;-71
2022/03/02 09:44:00;;;;;;;80.07;46.85;;;6.70;99.90;;;;;;5103279;28;20523;-71
2022/03/02 09:46:33;;;;;;;80.53;50.20;;;6.80;99.90;;;;;;5086565;28;20062;-70
2022/03/02 09:49:07;;;;;;;81.70;49.35;;;6.90;99.90;;;;;;5070011;28;20058;-71
2022/03/02 09:51:33;;;;;;;79.10;46.08;;;7.00;99.90;;;;;;5083144;28;20044;-71
2022/03/02 09:54:02;;;;;;;86.43;47.90;;;7.00;99.90;;;;;;5068865;28;20062;-71
2022/03/02 09:56:31;;;;;;;78.90;48.20;;;7.10;99.90;;;;;;5070766;28;20441;-71
2022/03/02 09:59:00;;;;;;;78.65;48.53;;;7.10;99.90;;;;;;5065178;28;20164;-71
2022/03/02 10:01:26;;;;;;;80.13;46.25;;;7.20;99.90;;;;;;5103856;28;20044;-70
2022/03/02 10:03:53;;;;;;;66.53;44.40;;;7.20;99.90;;;;;;5070872;28;20589;-71
2022/03/02 10:06:20;;;;;;;80.85;47.50;;;7.20;99.90;;;;;;5070827;28;20073;-71
2022/03/02 10:08:49;;;;;;;76.23;48.50;;;7.30;99.90;;;;;;5074375;28;20052;-70
2022/03/02 10:11:21;;;;;;;;;;;7.30;99.90;;;;;;5074819;28;20284;-70
2022/03/02 10:13:47;;;;;;;85.53;48.53;;;7.30;99.90;;;;;;5105073;27;19923;-71
2022/03/02 10:16:21;;;;;;;84.57;50.45;;;7.40;99.90;;;;;;5072392;28;20400;-70
2022/03/02 10:18:56;;;;;;;74.32;47.17;;;7.50;99.90;;;;;;5106672;27;20059;-70
2022/03/02 10:21:31;;;;;;;84.57;51.45;;;7.60;99.90;;;;;;5056655;28;20036;-70
2022/03/02 10:23:59;;;;;;;81.30;48.83;;;7.70;99.90;;;;;;5069776;28;20075;-71
2022/03/02 10:26:31;;;;;;;85.15;49.78;;;7.70;99.90;;;;;;5075238;28;20059;-71
2022/03/02 10:29:29;;;;;;;77.55;47.42;;;7.80;99.90;;;;;;5070475;28;20032;-70
2022/03/02 10:32:05;;;;;;;78.82;48.25;;;7.80;99.90;;;;;;5088854;28;20048;-70
2022/03/02 10:34:36;;;;;;;76.43;48.03;;;7.90;99.90;;;;;;5105234;27;20082;-71
2022/03/02 10:37:20;;;;;;;85.65;46.92;;;7.90;99.90;;;;;;5070327;28;20048;-73
2022/03/02 10:40:09;;;;;;;78.93;45.53;;;8.00;99.90;;;;;;5104061;27;20050;-72
2022/03/02 10:42:44;;;;;;;84.38;48.05;;;8.10;99.90;;;;;;5105546;27;20052;-72
2022/03/02 10:45:24;;;;;;;73.60;48.97;;;8.10;99.90;;;;;;5106692;27;20055;-72
2022/03/02 10:48:14;;;;;;;77.57;47.55;;;8.30;99.90;;;;;;5103790;28;20044;-72
2022/03/02 10:50:43;;;;;;;82.07;48.17;;;8.20;99.90;;;;;;5068805;28;20493;-72
2022/03/02 10:53:16;;;;;;;74.68;46.83;;;8.30;99.90;;;;;;5100968;27;20088;-72
2022/03/02 10:55:47;;;;;;;79.15;46.35;;;8.40;99.90;;;;;;5105630;27;20494;-72
2022/03/02 10:58:16;;;;;;;71.30;46.28;;;8.50;99.90;;;;;;5069916;28;20044;-72
2022/03/02 11:00:41;;;;;;;;;;;8.60;99.90;;;;;;5072984;28;20044;-69
2022/03/02 11:03:07;;;;;;;74.43;43.72;;;8.60;99.90;;;;;;5088514;28;19927;-70
2022/03/02 11:05:34;;;;;;;72.72;43.88;;;8.50;99.90;;;;;;5102004;28;20413;-71
2022/03/02 11:08:01;;;;;;;75.03;46.03;;;8.60;99.90;;;;;;5072387;28;20054;-71
2022/03/02 11:10:37;;;;;;;76.88;44.60;;;8.60;99.90;;;;;;5088088;28;20421;-71
2022/03/02 11:13:11;;;;;;;73.88;44.17;;;8.70;99.90;;;;;;5098825;28;20052;-71
2022/03/02 11:15:49;;;;;;;69.57;43.70;;;8.70;99.90;;;;;;5071569;28;20569;-71
2022/03/02 11:18:17;;;;;;;73.38;44.88;;;8.70;99.90;;;;;;5070797;28;20113;-71
2022/03/02 11:20:58;;;;;;;89.47;46.50;;;8.80;99.90;;;;;;5072402;28;20412;-71
2022/03/02 11:23:24;;;;;;;78.72;44.17;;;8.90;99.90;;;;;;5108132;27;20075;-71
2022/03/02 11:25:52;;;;;;;75.32;43.85;;;8.90;99.90;;;;;;5072352;28;20470;-71
2022/03/02 11:28:20;;;;;;;78.22;45.33;;;9.00;99.90;;;;;;5086455;28;20591;-71
2022/03/02 11:31:04;;;;;;;74.38;43.58;;;9.10;99.90;;;;;;5067381;28;20058;-71
2022/03/02 11:33:30;;;;;;;65.57;40.17;;;9.10;99.90;;;;;;5070428;28;20123;-71
2022/03/02 11:36:02;;;;;;;79.65;42.78;;;9.10;99.90;;;;;;5078480;28;20076;-71
2022/03/02 11:38:30;;;;;;;71.50;43.08;;;9.00;99.90;;;;;;5070048;28;20048;-71
2022/03/02 11:40:56;;;;;;;;;;;9.10;99.90;;;;;;5072151;28;20052;-71
2022/03/02 11:43:26;;;;;;;68.85;42.28;;;9.10;99.90;;;;;;5070651;28;19934;-71
2022/03/02 11:45:56;;;;;;;67.32;41.25;;;9.10;99.90;;;;;;5069984;28;20101;-70
2022/03/02 11:48:42;;;;;;;69.75;43.42;;;9.20;99.90;;;;;;5070534;28;20040;-71
2022/03/02 11:51:13;;;;;;;69.28;42.40;;;9.30;99.90;;;;;;5104726;27;20445;-71
2022/03/02 11:53:45;;;;;;;70.95;42.67;;;9.40;99.90;;;;;;5104085;28;20062;-72
2022/03/02 11:56:17;;;;;;;69.93;40.97;;;9.40;99.90;;;;;;5071735;28;20044;-71
2022/03/02 11:58:55;;;;;;;78.60;43.63;;;9.40;99.90;;;;;;5070110;28;20126;-72
2022/03/02 12:01:22;;;;;;;63.97;40.37;;;9.40;99.90;;;;;;5078695;28;20036;-71
2022/03/02 12:03:58;;;;;;;64.95;42.42;;;9.50;99.90;;;;;;5103019;27;20299;-71
2022/03/02 12:06:24;;;;;;;63.22;40.58;;;9.50;99.90;;;;;;5065892;28;20591;-71
2022/03/02 12:08:52;;;;;;;63.47;40.15;;;9.40;99.90;;;;;;5105639;27;20048;-70
2022/03/02 12:11:26;;;;;;;69.33;43.00;;;9.50;99.90;;;;;;5101092;28;20043;-71
2022/03/02 12:13:59;;;;;;;73.65;42.10;;;9.60;99.90;;;;;;5070930;28;20417;-71
2022/03/02 12:16:43;;;;;;;63.22;39.38;;;9.70;99.90;;;;;;5068796;28;20538;-71
2022/03/02 12:19:21;;;;;;;66.75;40.47;;;9.70;99.20;;;;;;5100086;28;20044;-70
2022/03/02 12:21:48;;;;;;;64.00;38.95;;;9.60;99.70;;;;;;5105246;27;20056;-72
2022/03/02 12:24:19;;;;;;;68.63;42.30;;;9.70;99.90;;;;;;5068022;28;20048;-71
2022/03/02 12:26:49;;;;;;;66.15;41.50;;;9.70;98.50;;;;;;5070234;28;20047;-71
2022/03/02 12:29:16;;;;;;;64.20;39.65;;;9.70;98.50;;;;;;5069216;28;20512;-71
2022/03/02 12:31:44;;;;;;;60.75;38.92;;;9.70;98.90;;;;;;5069396;28;20143;-71
2022/03/02 12:34:14;;;;;;;74.32;39.45;;;9.70;98.60;;;;;;5068427;28;20523;-71
2022/03/02 12:36:43;;;;;;;67.32;37.85;;;9.70;97.30;;;;;;5069114;28;20416;-71